Time;durP1;ratioP1;P1;durP2;ratioP2;P2;SDS_P1;SDS_P2;PMS_P1;PMS_P2;Temp;Humidity;BMP_temperature;BMP_pressure;BME280_temperature;BME280_humidity;BME280_pressure;Samples;Min_cycle;Max_cycle;Signal;HPM_P1;HPM_P2
2021/06/04 00:04:52;;;;;;;11.30;4.90;;;16.00;99.90;;;;;;20753829;28;20033;-76
2021/06/04 00:14:53;;;;;;;10.70;4.90;;;15.90;99.90;;;;;;20738505;28;20026;-76
2021/06/04 00:24:56;;;;;;;9.40;4.17;;;16.00;99.90;;;;;;20755271;28;20050;-77
2021/06/04 00:34:57;;;;;;;11.70;4.45;;;16.10;99.90;;;;;;20736753;28;20038;-75
2021/06/04 00:44:58;;;;;;;11.40;4.20;;;16.20;99.90;;;;;;20735392;28;20440;-75
2021/06/04 00:55:06;;;;;;;10.40;4.45;;;16.10;99.90;;;;;;20752530;28;20030;-76
2021/06/04 01:05:09;;;;;;;6.90;4.65;;;15.50;99.90;;;;;;20751630;28;20029;-75
2021/06/04 01:15:36;;;;;;;9.93;4.85;;;15.30;99.90;;;;;;20733474;28;20034;-75
2021/06/04 01:25:49;;;;;;;7.18;4.50;;;15.40;99.90;;;;;;20749233;28;20026;-75
2021/06/04 01:35:59;;;;;;;7.85;4.70;;;15.00;99.90;;;;;;20731784;28;20523;-76
2021/06/04 01:46:23;;;;;;;10.70;4.85;;;14.90;99.90;;;;;;20730829;28;20065;-75
2021/06/04 01:56:32;;;;;;;9.23;4.50;;;15.40;99.90;;;;;;20730060;28;20036;-76
2021/06/04 02:06:34;;;;;;;7.68;4.60;;;15.50;99.90;;;;;;20728673;28;20026;-76
2021/06/04 02:17:02;;;;;;;13.73;4.97;;;15.50;99.90;;;;;;20746153;28;20073;-76
2021/06/04 02:27:13;;;;;;;7.03;4.88;;;15.30;99.90;;;;;;20727973;28;20053;-76
2021/06/04 02:37:32;;;;;;;12.02;5.15;;;15.10;99.90;;;;;;20727441;28;20041;-76
2021/06/04 02:47:44;;;;;;;9.20;5.07;;;15.30;99.90;;;;;;20726593;28;20053;-76
2021/06/04 02:57:45;;;;;;;6.57;5.18;;;15.40;99.90;;;;;;20726243;28;20033;-75
2021/06/04 03:07:47;;;;;;;9.27;5.93;;;15.70;99.90;;;;;;20711261;28;20034;-76
2021/06/04 03:17:51;;;;;;;9.02;6.22;;;15.80;99.90;;;;;;20725154;28;20479;-76
2021/06/04 03:27:53;;;;;;;8.63;6.20;;;15.80;99.90;;;;;;20742557;28;20557;-76
2021/06/04 03:38:04;;;;;;;10.02;6.53;;;15.80;99.90;;;;;;20668144;28;20031;-75
2021/06/04 03:48:09;;;;;;;11.77;6.45;;;15.70;99.90;;;;;;20750244;28;20038;-76
2021/06/04 03:58:13;;;;;;;12.20;5.93;;;15.70;99.90;;;;;;20756844;28;20404;-75
2021/06/04 04:08:16;;;;;;;12.77;7.22;;;15.70;99.90;;;;;;20760309;28;20030;-76
2021/06/04 04:18:18;;;;;;;11.60;6.85;;;15.70;99.90;;;;;;20752294;28;20041;-75
2021/06/04 04:28:24;;;;;;;11.37;6.40;;;15.70;99.90;;;;;;20754491;28;20396;-76
2021/06/04 04:38:25;;;;;;;8.60;5.40;;;15.90;99.90;;;;;;20753787;28;20198;-76
2021/06/04 04:48:26;;;;;;;7.57;5.70;;;16.00;99.90;;;;;;20752325;28;20057;-76
2021/06/04 04:58:27;;;;;;;10.63;4.70;;;16.10;99.90;;;;;;20737815;28;20030;-75
2021/06/04 05:08:28;;;;;;;10.17;6.00;;;16.10;99.90;;;;;;20747117;28;20053;-77
2021/06/04 05:18:29;;;;;;;9.53;6.13;;;16.10;99.90;;;;;;20746649;28;20029;-75
2021/06/04 05:28:30;;;;;;;13.53;6.77;;;16.10;99.90;;;;;;20746170;28;20026;-75
2021/06/04 05:38:32;;;;;;;11.57;6.50;;;16.10;99.90;;;;;;20704134;28;20088;-75
2021/06/04 05:59:39;;;;;;;10.32;5.55;;;16.30;99.90;;;;;;21040643;28;20078;-83
2021/06/04 06:09:40;;;;;;;14.53;6.03;;;16.60;99.90;;;;;;21120157;28;20394;-83
2021/06/04 06:19:41;;;;;;;10.17;5.77;;;17.00;99.90;;;;;;21163711;28;20118;-83
2021/06/04 06:29:41;;;;;;;9.97;5.83;;;17.30;99.90;;;;;;21143327;28;20043;-82
2021/06/04 06:39:42;;;;;;;11.97;5.87;;;17.70;99.90;;;;;;21125723;28;20067;-82
2021/06/04 06:49:43;;;;;;;10.07;5.73;;;18.10;99.90;;;;;;21141344;28;20113;-81
2021/06/04 06:59:44;;;;;;;10.13;5.40;;;18.50;99.90;;;;;;21125602;28;20130;-81
2021/06/04 07:09:46;;;;;;;13.03;5.43;;;18.60;99.90;;;;;;21142337;28;20032;-81
2021/06/04 07:19:47;;;;;;;10.60;5.78;;;18.50;99.90;;;;;;21151913;28;20111;-81
2021/06/04 07:29:48;;;;;;;14.60;5.47;;;18.40;99.90;;;;;;21143207;28;20401;-82
2021/06/04 07:39:49;;;;;;;7.20;5.07;;;18.20;99.90;;;;;;21161183;28;20055;-81
2021/06/04 07:49:49;;;;;;;11.00;5.70;;;18.40;99.90;;;;;;21145940;28;20032;-81
2021/06/04 07:59:50;;;;;;;9.43;4.67;;;18.60;99.90;;;;;;21163193;28;20044;-80
2021/06/04 08:09:51;;;;;;;46.80;32.27;;;18.80;99.90;;;;;;21179867;28;20115;-80
2021/06/04 08:19:52;;;;;;;7.73;5.53;;;18.60;99.90;;;;;;21160430;28;20039;-81
2021/06/04 08:29:54;;;;;;;12.37;5.80;;;18.80;99.90;;;;;;21161119;28;20061;-81
2021/06/04 08:39:55;;;;;;;17.80;9.37;;;19.10;99.90;;;;;;21182048;28;20035;-81
2021/06/04 08:49:58;;;;;;;37.93;26.47;;;19.10;99.90;;;;;;21165732;28;20466;-82
2021/06/04 09:00:01;;;;;;;13.25;6.15;;;19.40;99.90;;;;;;21185593;28;20027;-81
2021/06/04 09:10:22;;;;;;;10.80;5.35;;;19.70;99.90;;;;;;21173284;28;20066;-81
2021/06/04 09:20:23;;;;;;;9.32;5.65;;;19.50;99.90;;;;;;21176239;28;20043;-83
2021/06/04 09:30:37;;;;;;;12.03;5.13;;;20.00;99.90;;;;;;21174050;28;20043;-83
2021/06/04 09:40:40;;;;;;;15.18;7.55;;;19.90;99.90;;;;;;21133396;28;20043;-82
2021/06/04 09:50:44;;;;;;;17.30;7.50;;;19.90;99.90;;;;;;21175230;28;20051;-82
2021/06/04 10:00:54;;;;;;;9.80;5.93;;;19.70;99.90;;;;;;21165087;28;20505;-82
2021/06/04 10:11:13;;;;;;;23.25;11.48;;;19.70;99.90;;;;;;21129061;28;20039;-82
2021/06/04 10:21:31;;;;;;;8.93;4.53;;;20.00;99.90;;;;;;21135824;28;20043;-82
2021/06/04 10:31:38;;;;;;;4.78;2.47;;;19.90;99.90;;;;;;21140863;27;20028;-82
2021/06/04 10:42:00;;;;;;;5.72;2.58;;;19.70;99.90;;;;;;21265812;27;20039;-79
2021/06/04 10:52:03;;;;;;;5.20;2.17;;;20.00;99.90;;;;;;21290103;27;20070;-80
2021/06/04 11:02:33;;;;;;;3.25;1.85;;;20.20;99.90;;;;;;21275820;27;20382;-80
2021/06/04 11:13:04;;;;;;;3.35;2.28;;;20.10;99.90;;;;;;21162902;27;20036;-77
2021/06/04 11:23:25;;;;;;;3.35;1.90;;;20.50;99.90;;;;;;21116419;28;20148;-78
2021/06/04 11:33:30;;;;;;;2.70;1.63;;;20.40;99.90;;;;;;21227127;28;20070;-78
2021/06/04 11:43:34;;;;;;;4.00;1.67;;;21.20;99.90;;;;;;21206330;28;20067;-78
2021/06/04 11:53:37;;;;;;;3.70;2.33;;;21.20;99.90;;;;;;20936836;22;20053;-78
2021/06/04 12:03:49;;;;;;;6.60;2.70;;;21.20;99.90;;;;;;20891701;28;20499;-78
2021/06/04 12:13:51;;;;;;;10.87;5.13;;;21.70;99.90;;;;;;20882859;28;20045;-79
2021/06/04 12:23:55;;;;;;;20.40;9.02;;;22.20;99.90;;;;;;20906716;28;20053;-78
2021/06/04 12:33:59;;;;;;;3.88;2.05;;;23.40;99.90;;;;;;20880923;28;20124;-79
2021/06/04 12:44:01;;;;;;;4.47;1.77;;;23.30;99.90;;;;;;20863621;28;20557;-77
2021/06/04 12:54:09;;;;;;;3.88;1.80;;;24.00;99.90;;;;;;20896395;28;20060;-76
2021/06/04 13:04:16;;;;;;;2.03;1.52;;;24.50;99.90;;;;;;20895550;28;20037;-74
2021/06/04 13:14:29;;;;;;;1.88;1.27;;;24.50;99.90;;;;;;20892943;28;20037;-76
2021/06/04 13:24:32;;;;;;;5.32;1.38;;;24.90;99.90;;;;;;20872841;28;20604;-74
2021/06/04 13:34:47;;;;;;;2.00;1.30;;;24.70;99.90;;;;;;20893670;28;20120;-75
2021/06/04 13:44:49;;;;;;;3.25;1.35;;;25.00;99.90;;;;;;20889282;28;20128;-74
2021/06/04 13:54:55;;;;;;;3.88;1.50;;;24.80;99.90;;;;;;20873754;28;20446;-74
2021/06/04 14:04:58;;;;;;;6.60;2.00;;;24.90;99.90;;;;;;20894719;28;20071;-73
2021/06/04 14:14:59;;;;;;;3.10;1.63;;;24.90;99.90;;;;;;20883801;28;20107;-74
2021/06/04 14:25:01;;;;;;;3.00;1.40;;;25.40;99.90;;;;;;20902651;28;20033;-73
2021/06/04 14:35:22;;;;;;;3.85;1.70;;;26.90;99.90;;;;;;20895983;28;20374;-74
2021/06/04 14:45:23;;;;;;;3.17;1.00;;;27.50;99.90;;;;;;20908431;28;20074;-74
2021/06/04 14:55:27;;;;;;;2.38;1.65;;;27.40;99.90;;;;;;20908685;28;20539;-73
2021/06/04 15:05:29;;;;;;;1.20;0.80;;;26.90;99.90;;;;;;20907667;28;20127;-74
2021/06/04 15:15:32;;;;;;;1.95;1.20;;;27.30;99.90;;;;;;20906788;28;20045;-74
2021/06/04 15:25:35;;;;;;;4.85;1.63;;;27.30;99.90;;;;;;20890067;28;20067;-74
2021/06/04 15:35:36;;;;;;;4.90;1.38;;;27.60;99.90;;;;;;20907000;28;20053;-74
2021/06/04 15:45:37;;;;;;;2.40;1.70;;;27.50;99.90;;;;;;20923354;28;20530;-74
2021/06/04 15:55:39;;;;;;;6.15;2.03;;;26.30;99.90;;;;;;20923637;28;20129;-74
2021/06/04 16:05:43;;;;;;;4.55;1.45;;;26.60;99.90;;;;;;20920148;28;20124;-74
2021/06/04 16:15:46;;;;;;;4.05;1.90;;;26.40;99.90;;;;;;20919967;28;20048;-74
2021/06/04 16:25:53;;;;;;;4.35;1.90;;;25.90;99.90;;;;;;20919089;28;20094;-74
2021/06/04 16:35:54;;;;;;;4.93;1.77;;;25.60;99.90;;;;;;20918499;28;20045;-75
2021/06/04 16:45:56;;;;;;;5.35;2.83;;;25.40;99.90;;;;;;20919379;28;20051;-74
2021/06/04 16:55:57;;;;;;;6.00;2.10;;;25.10;99.90;;;;;;20898730;28;20052;-74
2021/06/04 17:05:58;;;;;;;;;;;25.30;99.90;;;;;;20898475;28;20083;-74
2021/06/04 17:15:59;;;;;;;3.80;1.67;;;25.20;99.90;;;;;;20914256;28;19916;-75
2021/06/04 17:26:00;;;;;;;;;;;25.30;99.90;;;;;;20897164;28;20678;-74
2021/06/04 17:36:02;;;;;;;3.65;1.60;;;25.30;99.90;;;;;;20919860;28;19912;-74
2021/06/04 17:46:02;;;;;;;3.10;1.40;;;25.00;99.90;;;;;;20913758;28;20036;-75
2021/06/04 17:56:08;;;;;;;2.45;1.40;;;24.90;99.90;;;;;;20892135;28;20489;-74
2021/06/04 18:06:09;;;;;;;3.30;1.38;;;25.70;99.90;;;;;;20842162;28;20081;-74
2021/06/04 18:16:13;;;;;;;2.65;1.10;;;26.20;99.90;;;;;;20874211;28;20045;-74
2021/06/04 18:26:15;;;;;;;5.88;2.28;;;24.70;99.90;;;;;;20879308;28;20044;-73
2021/06/04 18:36:17;;;;;;;4.85;1.50;;;23.10;99.90;;;;;;20892000;28;20055;-74
2021/06/04 18:46:22;;;;;;;6.25;1.58;;;22.40;99.90;;;;;;20889252;28;20053;-74
2021/06/04 18:56:24;;;;;;;4.50;1.77;;;22.00;99.90;;;;;;20888607;28;20132;-73
2021/06/04 19:06:26;;;;;;;11.13;2.08;;;21.50;99.90;;;;;;20870202;28;20044;-74
2021/06/04 19:16:29;;;;;;;5.45;2.80;;;20.60;99.90;;;;;;20884793;28;20115;-75
2021/06/04 19:26:30;;;;;;;3.33;1.73;;;20.20;99.90;;;;;;20901617;28;20562;-78
2021/06/04 19:36:33;;;;;;;3.03;1.90;;;20.00;99.90;;;;;;20908813;28;20128;-78
2021/06/04 19:46:35;;;;;;;6.03;1.92;;;19.90;99.90;;;;;;20895192;28;20071;-77
2021/06/04 19:56:37;;;;;;;2.50;2.00;;;20.10;99.90;;;;;;20891494;28;20069;-77
2021/06/04 20:06:38;;;;;;;;;;;20.10;99.90;;;;;;20882095;28;20044;-77
2021/06/04 20:16:39;;;;;;;8.52;2.63;;;19.80;99.90;;;;;;20894362;28;20483;-77
2021/06/04 20:26:40;;;;;;;3.57;2.13;;;19.30;99.90;;;;;;20878207;28;20045;-77
2021/06/04 20:36:42;;;;;;;8.52;3.33;;;19.20;99.90;;;;;;20903571;28;20045;-76
2021/06/04 20:46:45;;;;;;;12.90;3.13;;;19.00;99.90;;;;;;20880591;28;20060;-77
2021/06/04 20:56:49;;;;;;;5.35;2.67;;;19.00;99.90;;;;;;20879629;28;20121;-76
2021/06/04 21:06:51;;;;;;;8.15;3.20;;;19.00;99.90;;;;;;20882137;28;20537;-76
2021/06/04 21:16:52;;;;;;;;;;;19.20;99.90;;;;;;20921591;28;20107;-77
2021/06/04 21:26:53;;;;;;;3.40;1.60;;;19.30;99.90;;;;;;20912153;28;19912;-77
2021/06/04 21:36:54;;;;;;;3.03;0.70;;;19.50;99.90;;;;;;20895585;28;20041;-77
2021/06/04 21:46:54;;;;;;;1.77;0.83;;;19.00;99.90;;;;;;20884037;28;20465;-76
2021/06/04 21:56:56;;;;;;;3.90;1.27;;;18.50;99.90;;;;;;20878456;28;20448;-75
2021/06/04 22:06:57;;;;;;;2.20;1.03;;;17.70;99.90;;;;;;20907556;28;20033;-76
2021/06/04 22:16:58;;;;;;;4.33;1.53;;;17.30;99.90;;;;;;20909472;28;20112;-75
2021/06/04 22:26:59;;;;;;;3.97;1.30;;;17.00;99.90;;;;;;20916023;28;20040;-75
2021/06/04 22:37:00;;;;;;;4.33;1.10;;;16.80;99.90;;;;;;20907039;28;20557;-76
2021/06/04 22:47:01;;;;;;;5.63;1.43;;;16.60;99.90;;;;;;20889222;28;20124;-76
2021/06/04 22:57:02;;;;;;;2.90;1.37;;;16.60;99.90;;;;;;20907712;28;20126;-76
2021/06/04 23:07:03;;;;;;;4.20;1.53;;;16.40;99.90;;;;;;20911766;28;20187;-78
2021/06/04 23:17:04;;;;;;;8.75;1.42;;;16.30;99.90;;;;;;20913348;28;20045;-78
2021/06/04 23:27:05;;;;;;;5.30;2.00;;;16.30;99.90;;;;;;20892702;28;20041;-76
2021/06/04 23:37:06;;;;;;;6.80;2.10;;;16.40;99.90;;;;;;20905856;28;20071;-77
2021/06/04 23:47:07;;;;;;;5.80;1.53;;;16.60;99.90;;;;;;20907441;28;20072;-77
2021/06/04 23:57:08;;;;;;;7.43;1.77;;;16.20;99.90;;;;;;20907547;28;20041;-77
